createdAt,value
2019-04-16T00:01:38.534Z,59.60
2019-04-16T00:03:44.070Z,59.50
2019-04-16T00:05:49.418Z,59.40
2019-04-16T00:07:54.661Z,59.80
2019-04-16T00:09:59.903Z,60.10
2019-04-16T00:12:23.130Z,59.80
2019-04-16T00:14:28.418Z,59.80
2019-04-16T00:16:32.115Z,59.90
2019-04-16T00:18:35.777Z,60.10
2019-04-16T00:20:41.018Z,60.20
2019-04-16T00:23:04.237Z,60.30
2019-04-16T00:25:08.110Z,60.10
2019-04-16T00:27:11.894Z,60.30
2019-04-16T00:29:15.702Z,60.10
2019-04-16T00:31:19.487Z,60.10
2019-04-16T00:33:23.155Z,60.20
2019-04-16T00:35:26.912Z,60.40
2019-04-16T00:37:30.594Z,60.00
2019-04-16T00:39:34.273Z,60.30
2019-04-16T00:41:37.937Z,61.50
2019-04-16T00:43:44.097Z,60.40
2019-04-16T00:45:47.169Z,60.20
2019-04-16T00:47:51.332Z,59.80
2019-04-16T00:49:58.757Z,59.50
2019-04-16T00:52:05.891Z,59.50
2019-04-16T00:54:09.863Z,59.80
2019-04-16T00:56:13.399Z,59.70
2019-04-16T00:58:19.711Z,59.40
2019-04-16T01:00:23.071Z,60.50
2019-04-16T01:02:26.867Z,60.80
2019-04-16T01:04:31.351Z,60.90
2019-04-16T01:06:35.101Z,61.00
2019-04-16T01:08:38.811Z,61.00
2019-04-16T01:10:42.481Z,61.00
2019-04-16T01:12:46.174Z,60.70
2019-04-16T01:14:49.826Z,59.80
2019-04-16T01:16:53.530Z,61.40
2019-04-16T01:18:57.222Z,61.00
2019-04-16T01:21:00.886Z,60.70
2019-04-16T01:23:04.584Z,60.90
2019-04-16T01:25:08.330Z,60.90
2019-04-16T01:27:12.003Z,60.90
2019-04-16T01:29:16.915Z,61.10
2019-04-16T01:31:22.161Z,61.40
2019-04-16T01:33:27.417Z,61.60
2019-04-16T01:35:44.828Z,61.70
2019-04-16T01:38:06.244Z,61.70
2019-04-16T01:40:11.734Z,61.50
2019-04-16T01:42:15.390Z,61.70
2019-04-16T01:44:19.291Z,61.50
2019-04-16T01:46:22.999Z,61.80
2019-04-16T01:48:26.779Z,61.40
2019-04-16T01:50:30.432Z,61.90
2019-04-16T01:52:34.342Z,61.80
2019-04-16T01:54:38.036Z,61.60
2019-04-16T01:56:41.890Z,61.60
2019-04-16T01:58:45.593Z,61.30
2019-04-16T02:00:49.268Z,61.30
2019-04-16T02:02:52.966Z,61.60
2019-04-16T02:04:56.646Z,62.00
2019-04-16T02:07:00.331Z,62.50
2019-04-16T02:09:05.467Z,62.20
2019-04-16T02:11:10.608Z,62.00
2019-04-16T02:13:15.857Z,61.90
2019-04-16T02:15:21.935Z,61.90
2019-04-16T02:17:26.972Z,61.80
2019-04-16T02:19:32.909Z,61.70
2019-04-16T02:21:35.822Z,61.40
2019-04-16T02:23:40.393Z,61.80
2019-04-16T02:25:44.090Z,62.00
2019-04-16T02:27:47.750Z,61.40
2019-04-16T02:29:53.688Z,61.70
2019-04-16T02:31:56.833Z,61.40
2019-04-16T02:34:00.957Z,61.40
2019-04-16T02:36:04.708Z,60.90
2019-04-16T02:38:12.278Z,61.10
2019-04-16T02:40:18.472Z,60.60
2019-04-16T02:42:19.183Z,60.70
2019-04-16T02:44:22.930Z,61.20
2019-04-16T02:46:30.554Z,61.00
2019-04-16T02:48:32.137Z,60.90
2019-04-16T02:50:37.449Z,60.80
2019-04-16T02:52:51.041Z,61.10
2019-04-16T02:55:08.109Z,61.50
2019-04-16T02:57:11.478Z,62.10
2019-04-16T02:59:16.961Z,62.40
2019-04-16T03:01:40.599Z,62.60
2019-04-16T03:03:58.054Z,62.60
2019-04-16T03:06:02.152Z,62.80
2019-04-16T03:08:06.300Z,62.80
2019-04-16T03:10:13.248Z,63.20
2019-04-16T03:12:17.554Z,63.00
2019-04-16T03:14:21.170Z,62.70
2019-04-16T03:16:42.794Z,62.40
2019-04-16T03:18:50.638Z,62.50
2019-04-16T03:20:55.701Z,62.60
2019-04-16T03:23:02.513Z,62.90
2019-04-16T03:25:12.365Z,63.00
2019-04-16T03:27:12.630Z,63.00
2019-04-16T03:29:16.359Z,62.90
2019-04-16T03:31:23.242Z,62.50
2019-04-16T03:33:25.552Z,62.70
2019-04-16T03:35:29.220Z,62.60
2019-04-16T03:37:33.696Z,62.60
2019-04-16T03:39:37.423Z,62.70
2019-04-16T03:41:41.110Z,62.50
2019-04-16T03:43:44.820Z,62.50
2019-04-16T03:45:48.608Z,62.40
2019-04-16T03:47:52.447Z,62.60
2019-04-16T03:49:56.341Z,62.90
2019-04-16T03:52:04.849Z,63.20
2019-04-16T03:54:08.319Z,63.30
2019-04-16T03:56:12.046Z,63.30
2019-04-16T03:58:15.731Z,63.30
2019-04-16T04:00:19.396Z,63.10
2019-04-16T04:02:23.196Z,62.90
2019-04-16T04:04:29.207Z,62.80
2019-04-16T04:06:32.340Z,62.50
2019-04-16T04:08:36.207Z,62.60
2019-04-16T04:10:39.859Z,62.70
2019-04-16T04:12:45.798Z,62.90
2019-04-16T04:14:51.306Z,63.00
2019-04-16T04:16:54.579Z,62.70
2019-04-16T04:18:58.243Z,62.90
2019-04-16T04:21:01.903Z,62.90
2019-04-16T04:23:05.612Z,62.70
2019-04-16T04:25:09.275Z,62.60
2019-04-16T04:27:16.769Z,62.60
2019-04-16T04:29:20.689Z,62.90
2019-04-16T04:31:23.974Z,62.70
2019-04-16T04:33:42.705Z,62.80
2019-04-16T04:35:45.150Z,62.90
2019-04-16T04:37:48.866Z,63.00
2019-04-16T04:39:52.639Z,62.70
2019-04-16T04:41:57.212Z,62.80
2019-04-16T04:44:04.345Z,62.50
2019-04-16T04:46:06.607Z,62.70
2019-04-16T04:48:12.452Z,62.90
2019-04-16T04:50:16.500Z,62.90
2019-04-16T04:52:20.327Z,62.70
2019-04-16T04:54:24.011Z,62.70
2019-04-16T04:56:28.140Z,63.20
2019-04-16T04:58:34.187Z,62.60
2019-04-16T05:00:40.534Z,62.70
2019-04-16T05:02:44.348Z,62.80
2019-04-16T05:04:55.687Z,63.10
2019-04-16T05:07:04.915Z,63.20
2019-04-16T05:09:08.735Z,63.00
2019-04-16T05:11:14.696Z,63.10
2019-04-16T05:13:17.826Z,63.20
2019-04-16T05:15:21.492Z,63.30
2019-04-16T05:17:26.747Z,63.30
2019-04-16T05:19:30.448Z,63.40
2019-04-16T05:21:34.124Z,63.80
2019-04-16T05:23:37.916Z,63.80
2019-04-16T05:25:41.610Z,63.60
2019-04-16T05:27:45.270Z,63.90
2019-04-16T05:29:49.669Z,63.50
2019-04-16T05:31:54.530Z,63.70
2019-04-16T05:34:02.239Z,63.90
2019-04-16T05:36:04.193Z,64.50
2019-04-16T05:38:07.850Z,64.60
2019-04-16T05:40:12.030Z,64.80
2019-04-16T05:42:15.814Z,64.40
2019-04-16T05:44:19.510Z,64.20
2019-04-16T05:46:23.194Z,64.50
2019-04-16T05:48:26.865Z,64.40
2019-04-16T05:50:30.660Z,64.50
2019-04-16T05:52:35.965Z,64.60
2019-04-16T05:54:41.546Z,64.80
2019-04-16T05:56:48.320Z,64.60
2019-04-16T05:58:51.974Z,63.80
2019-04-16T06:00:59.766Z,63.60
2019-04-16T06:03:03.466Z,63.60
2019-04-16T06:05:07.372Z,63.60
2019-04-16T06:07:11.429Z,63.60
2019-04-16T06:09:15.120Z,63.00
2019-04-16T06:11:28.687Z,63.00
2019-04-16T06:13:28.636Z,62.60
2019-04-16T06:15:39.745Z,62.80
2019-04-16T06:18:02.476Z,61.90
2019-04-16T06:20:11.070Z,62.00
2019-04-16T06:22:18.755Z,60.90
2019-04-16T06:24:23.997Z,61.00
2019-04-16T06:26:35.410Z,61.00
2019-04-16T06:28:46.405Z,60.90
2019-04-16T06:31:05.034Z,61.00
2019-04-16T06:33:10.333Z,60.40
2019-04-16T06:35:24.792Z,59.90
2019-04-16T06:37:48.305Z,59.80
2019-04-16T06:40:05.722Z,60.00
2019-04-16T06:42:13.800Z,59.80
2019-04-16T06:44:29.805Z,61.20
2019-04-16T06:46:31.656Z,60.00
2019-04-16T06:48:42.445Z,60.40
2019-04-16T06:51:02.151Z,60.80
2019-04-16T06:53:23.163Z,59.70
2019-04-16T06:55:43.154Z,59.40
2019-04-16T06:57:54.094Z,59.00
2019-04-16T06:59:59.431Z,58.50
2019-04-16T07:02:25.038Z,59.10
2019-04-16T07:04:36.427Z,58.70
2019-04-16T07:06:44.232Z,58.20
2019-04-16T07:09:04.251Z,58.10
2019-04-16T07:11:09.630Z,58.60
2019-04-16T07:13:13.324Z,57.70
2019-04-16T07:15:22.589Z,57.40
2019-04-16T07:17:22.527Z,57.50
2019-04-16T07:19:26.205Z,57.80
2019-04-16T07:21:29.871Z,57.90
2019-04-16T07:23:34.196Z,58.00
2019-04-16T07:25:41.753Z,58.20
2019-04-16T07:27:57.579Z,57.50
2019-04-16T07:30:08.467Z,58.20
2019-04-16T07:32:29.475Z,57.20
2019-04-16T07:34:51.130Z,56.80
2019-04-16T07:36:56.615Z,57.10
2019-04-16T07:39:05.064Z,58.00
2019-04-16T07:41:26.544Z,56.90
2019-04-16T07:43:47.425Z,57.20
2019-04-16T07:45:52.834Z,56.90
2019-04-16T07:48:07.268Z,56.90
2019-04-16T07:50:12.977Z,56.80
2019-04-16T07:52:30.083Z,57.00
2019-04-16T07:54:43.917Z,56.60
2019-04-16T07:56:49.153Z,56.20
2019-04-16T07:58:52.866Z,56.10
2019-04-16T08:00:56.537Z,56.60
2019-04-16T08:03:00.197Z,57.90
2019-04-16T08:05:07.881Z,57.40
2019-04-16T08:07:10.302Z,57.30
2019-04-16T08:09:14.206Z,57.40
2019-04-16T08:11:17.878Z,56.50
2019-04-16T08:13:22.767Z,57.10
2019-04-16T08:15:26.647Z,57.60
2019-04-16T08:17:30.321Z,57.10
2019-04-16T08:19:37.099Z,57.10
2019-04-16T08:21:40.666Z,57.60
2019-04-16T08:23:51.775Z,57.60
2019-04-16T08:26:01.935Z,57.60
2019-04-16T08:27:57.218Z,58.40
2019-04-16T08:30:03.695Z,59.10
2019-04-16T08:32:06.309Z,58.20
2019-04-16T08:34:10.005Z,58.20
2019-04-16T08:36:13.659Z,58.90
2019-04-16T08:38:17.345Z,58.00
2019-04-16T08:40:21.114Z,58.20
2019-04-16T08:42:29.045Z,58.40
2019-04-16T08:44:35.259Z,58.40
2019-04-16T08:46:35.604Z,58.00
2019-04-16T08:48:39.316Z,57.60
2019-04-16T08:50:43.331Z,59.90
2019-04-16T08:52:47.102Z,59.30
2019-04-16T08:54:54.545Z,59.40
2019-04-16T08:56:56.360Z,58.90
2019-04-16T08:59:01.280Z,60.50
2019-04-16T09:01:06.159Z,58.70
2019-04-16T09:03:09.839Z,57.70
2019-04-16T09:05:13.679Z,58.80
2019-04-16T09:07:35.146Z,58.30
2019-04-16T09:09:43.883Z,57.50
2019-04-16T09:11:48.999Z,56.60
2019-04-16T09:13:56.818Z,57.70
2019-04-16T09:16:01.413Z,57.20
2019-04-16T09:18:21.758Z,57.30
2019-04-16T09:20:27.037Z,58.30
2019-04-16T09:22:30.745Z,58.60
2019-04-16T09:24:41.778Z,60.30
2019-04-16T09:27:02.429Z,58.70
2019-04-16T09:29:23.818Z,58.30
2019-04-16T09:31:41.167Z,58.60
2019-04-16T09:33:46.418Z,59.20
2019-04-16T09:36:07.814Z,59.60
2019-04-16T09:38:25.134Z,58.00
2019-04-16T09:40:49.095Z,58.20
2019-04-16T09:42:52.494Z,59.40
2019-04-16T09:44:56.169Z,59.40
2019-04-16T09:47:00.589Z,58.30
2019-04-16T09:49:05.177Z,58.30
2019-04-16T09:51:09.769Z,57.60
2019-04-16T09:53:13.529Z,58.80
2019-04-16T09:55:19.164Z,59.40
2019-04-16T09:57:24.354Z,58.80
2019-04-16T09:59:29.766Z,58.50
2019-04-16T10:01:43.874Z,58.90
2019-04-16T10:03:53.711Z,58.10
2019-04-16T10:05:57.223Z,57.50
2019-04-16T10:08:00.942Z,58.50
2019-04-16T10:10:05.143Z,59.50
2019-04-16T10:12:09.118Z,58.70
2019-04-16T10:14:13.502Z,59.10
2019-04-16T10:16:18.709Z,58.90
2019-04-16T10:18:22.613Z,58.10
2019-04-16T10:20:26.311Z,57.80
2019-04-16T10:22:30.001Z,56.80
2019-04-16T10:24:51.493Z,57.80
2019-04-16T10:26:56.891Z,57.60
2019-04-16T10:29:05.941Z,58.40
2019-04-16T10:31:10.567Z,59.00
2019-04-16T10:33:14.264Z,60.30
2019-04-16T10:35:18.133Z,61.10
2019-04-16T10:37:21.933Z,60.80
2019-04-16T10:39:33.884Z,61.80
2019-04-16T10:41:41.616Z,61.50
2019-04-16T10:43:49.586Z,60.20
2019-04-16T10:46:03.398Z,59.50
2019-04-16T10:48:23.554Z,60.50
2019-04-16T10:50:44.738Z,61.00
2019-04-16T10:53:05.200Z,60.00
2019-04-16T10:55:13.176Z,59.10
2019-04-16T10:57:38.423Z,58.70
2019-04-16T10:59:43.431Z,58.10
2019-04-16T11:01:51.323Z,57.80
2019-04-16T11:04:08.652Z,57.90
2019-04-16T11:06:14.018Z,58.80
2019-04-16T11:08:17.746Z,59.40
2019-04-16T11:10:21.537Z,58.90
2019-04-16T11:12:25.354Z,59.20
2019-04-16T11:14:29.078Z,59.60
2019-04-16T11:16:35.902Z,58.70
2019-04-16T11:18:38.266Z,59.20
2019-04-16T11:20:42.159Z,57.70
2019-04-16T11:22:45.903Z,57.70
2019-04-16T11:24:49.579Z,57.80
2019-04-16T11:26:53.342Z,57.50
2019-04-16T11:28:57.016Z,57.40
2019-04-16T11:31:03.021Z,57.30
2019-04-16T11:33:06.728Z,58.80
2019-04-16T11:35:13.376Z,56.70
2019-04-16T11:37:16.127Z,57.70
2019-04-16T11:39:19.833Z,57.10
2019-04-16T11:41:23.590Z,56.40
2019-04-16T11:43:28.280Z,57.10
2019-04-16T11:45:31.985Z,56.80
2019-04-16T11:47:35.740Z,56.70
2019-04-16T11:49:39.630Z,56.70
2019-04-16T11:51:43.390Z,58.10
2019-04-16T11:53:47.100Z,58.20
2019-04-16T11:55:51.042Z,58.10
2019-04-16T11:57:54.710Z,58.40
2019-04-16T12:00:06.448Z,58.50
2019-04-16T12:02:14.293Z,58.70
2019-04-16T12:04:28.148Z,58.30
2019-04-16T12:06:33.454Z,59.50
2019-04-16T12:08:38.696Z,58.20
2019-04-16T12:11:00.448Z,58.40
2019-04-16T12:13:05.726Z,57.40
2019-04-16T12:15:20.036Z,57.50
2019-04-16T12:17:31.215Z,58.20
2019-04-16T12:19:54.366Z,58.10
2019-04-16T12:22:15.846Z,57.40
2019-04-16T12:24:26.782Z,58.40
2019-04-16T12:26:32.118Z,56.50
2019-04-16T12:28:53.573Z,56.50
2019-04-16T12:31:08.238Z,56.60
2019-04-16T12:33:16.410Z,56.30
2019-04-16T12:35:34.729Z,57.30
2019-04-16T12:37:56.986Z,56.10
2019-04-16T12:40:05.099Z,55.40
2019-04-16T12:42:26.687Z,55.40
2019-04-16T12:44:48.122Z,55.40
2019-04-16T12:47:08.616Z,56.00
2019-04-16T12:49:30.374Z,56.00
2019-04-16T12:51:50.886Z,55.30
2019-04-16T12:54:12.458Z,54.30
2019-04-16T12:56:17.768Z,54.40
2019-04-16T12:58:39.190Z,55.90
2019-04-16T13:00:44.416Z,54.60
2019-04-16T13:02:49.665Z,54.40
2019-04-16T13:04:54.899Z,53.50
2019-04-16T13:07:00.661Z,52.70
2019-04-16T13:09:11.727Z,50.50
2019-04-16T13:11:19.451Z,48.90
2019-04-16T13:13:30.680Z,50.10
2019-04-16T13:15:38.991Z,50.50
2019-04-16T13:17:47.816Z,49.10
2019-04-16T13:20:06.138Z,49.50
2019-04-16T13:22:14.274Z,48.20
2019-04-16T13:24:28.578Z,47.60
2019-04-16T13:26:33.813Z,46.40
2019-04-16T13:28:37.498Z,46.50
2019-04-16T13:30:41.168Z,46.30
2019-04-16T13:32:44.826Z,47.00
2019-04-16T13:34:48.616Z,46.40
2019-04-16T13:36:52.349Z,49.10
2019-04-16T13:38:57.643Z,48.40
2019-04-16T13:41:02.703Z,47.40
2019-04-16T13:43:06.792Z,47.60
2019-04-16T13:45:25.543Z,49.40
2019-04-16T13:47:24.982Z,49.00
2019-04-16T13:49:32.839Z,47.30
2019-04-16T13:51:36.818Z,47.70
2019-04-16T13:53:42.051Z,46.90
2019-04-16T13:56:03.593Z,46.00
2019-04-16T13:58:08.829Z,45.30
2019-04-16T14:00:17.394Z,45.00
2019-04-16T14:02:25.120Z,46.30
2019-04-16T14:04:31.692Z,46.80
2019-04-16T14:06:34.262Z,45.70
2019-04-16T14:08:38.043Z,47.20
2019-04-16T14:10:43.311Z,47.00
2019-04-16T14:12:47.251Z,48.10
2019-04-16T14:14:50.996Z,47.70
2019-04-16T14:16:54.771Z,47.40
2019-04-16T14:18:58.944Z,47.50
2019-04-16T14:21:02.671Z,45.70
2019-04-16T14:23:06.481Z,46.10
2019-04-16T14:25:10.911Z,46.00
2019-04-16T14:27:14.869Z,45.70
2019-04-16T14:29:18.546Z,46.30
2019-04-16T14:31:23.206Z,46.10
2019-04-16T14:33:28.542Z,45.20
2019-04-16T14:35:34.052Z,44.30
2019-04-16T14:37:37.893Z,45.70
2019-04-16T14:39:46.235Z,45.50
2019-04-16T14:41:50.416Z,44.80
2019-04-16T14:43:58.784Z,44.20
2019-04-16T14:46:03.950Z,43.10
2019-04-16T14:48:09.628Z,43.90
2019-04-16T14:50:13.716Z,43.70
2019-04-16T14:52:17.740Z,44.00
2019-04-16T14:54:22.975Z,44.50
2019-04-16T14:56:30.898Z,43.90
2019-04-16T14:58:36.148Z,44.10
2019-04-16T15:00:50.263Z,43.30
2019-04-16T15:02:55.523Z,47.60
2019-04-16T15:05:03.510Z,50.20
2019-04-16T15:07:08.870Z,52.20
2019-04-16T15:09:14.087Z,54.00
2019-04-16T15:11:19.423Z,55.20
2019-04-16T15:13:24.906Z,54.40
2019-04-16T15:15:30.178Z,55.60
2019-04-16T15:17:53.742Z,55.00
2019-04-16T15:19:59.001Z,55.20
2019-04-16T15:22:19.511Z,55.50
2019-04-16T15:24:24.759Z,56.70
2019-04-16T15:26:46.621Z,57.80
2019-04-16T15:28:51.940Z,57.70
2019-04-16T15:31:00.675Z,59.20
2019-04-16T15:33:20.651Z,58.60
2019-04-16T15:35:38.184Z,59.30
2019-04-16T15:37:54.615Z,59.00
2019-04-16T15:39:59.937Z,59.10
2019-04-16T15:42:17.209Z,60.80
2019-04-16T15:44:24.114Z,59.90
2019-04-16T15:46:45.767Z,60.20
2019-04-16T15:48:54.094Z,60.70
2019-04-16T15:51:07.808Z,59.10
2019-04-16T15:53:12.277Z,59.00
2019-04-16T15:55:24.537Z,58.60
2019-04-16T15:57:32.745Z,57.70
2019-04-16T15:59:40.644Z,57.70
2019-04-16T16:02:02.188Z,57.60
2019-04-16T16:04:16.300Z,57.30
2019-04-16T16:06:24.456Z,57.10
2019-04-16T16:08:30.466Z,56.60
2019-04-16T16:10:39.641Z,56.10
2019-04-16T16:12:43.316Z,56.20
2019-04-16T16:14:47.026Z,55.80
2019-04-16T16:16:51.519Z,55.30
2019-04-16T16:18:55.470Z,53.60
2019-04-16T16:20:59.206Z,53.00
2019-04-16T16:23:02.876Z,53.30
2019-04-16T16:25:07.548Z,53.40
2019-04-16T16:27:11.438Z,54.40
2019-04-16T16:29:15.179Z,54.80
2019-04-16T16:31:18.954Z,56.10
2019-04-16T16:33:22.651Z,56.60
2019-04-16T16:35:26.414Z,56.90
2019-04-16T16:37:30.199Z,57.10
2019-04-16T16:39:33.901Z,56.30
2019-04-16T16:41:37.569Z,57.10
2019-04-16T16:43:41.272Z,58.70
2019-04-16T16:45:55.339Z,60.20
2019-04-16T16:47:59.281Z,59.70
2019-04-16T16:50:02.982Z,58.80
2019-04-16T16:52:17.027Z,58.90
2019-04-16T16:54:22.325Z,59.20
2019-04-16T16:56:27.566Z,58.50
2019-04-16T16:58:41.895Z,59.50
2019-04-16T17:01:03.119Z,58.50
2019-04-16T17:03:14.285Z,58.50
2019-04-16T17:05:19.659Z,58.00
2019-04-16T17:07:23.333Z,57.20
2019-04-16T17:09:31.219Z,56.40
2019-04-16T17:11:35.492Z,57.20
2019-04-16T17:13:39.174Z,58.70
2019-04-16T17:15:42.847Z,57.80
2019-04-16T17:17:46.514Z,56.70
2019-04-16T17:19:50.901Z,56.40
2019-04-16T17:21:54.874Z,56.40
2019-04-16T17:23:58.555Z,56.80
2019-04-16T17:26:02.243Z,57.00
2019-04-16T17:28:05.915Z,57.40
2019-04-16T17:30:09.742Z,58.50
2019-04-16T17:32:13.404Z,58.50
2019-04-16T17:34:17.076Z,58.60
2019-04-16T17:36:20.754Z,59.30
2019-04-16T17:38:24.436Z,58.60
2019-04-16T17:40:35.286Z,58.10
2019-04-16T17:42:43.356Z,57.50
2019-04-16T17:45:04.199Z,57.30
2019-04-16T17:47:30.954Z,57.60
2019-04-16T17:49:28.624Z,57.40
2019-04-16T17:51:33.890Z,57.40
2019-04-16T17:53:39.126Z,57.40
2019-04-16T17:55:59.543Z,57.10
2019-04-16T17:58:04.755Z,57.10
2019-04-16T18:00:10.917Z,56.50
2019-04-16T18:02:18.767Z,55.70
2019-04-16T18:04:44.486Z,56.30
2019-04-16T18:07:03.476Z,57.60
2019-04-16T18:09:09.246Z,58.80
2019-04-16T18:11:14.527Z,61.10
2019-04-16T18:13:25.667Z,60.60
2019-04-16T18:15:49.016Z,61.70
2019-04-16T18:18:01.615Z,60.70
2019-04-16T18:20:13.306Z,60.90
2019-04-16T18:22:27.519Z,60.00
2019-04-16T18:24:38.391Z,60.00
2019-04-16T18:26:59.701Z,59.80
2019-04-16T18:29:07.382Z,60.50
2019-04-16T18:31:15.405Z,60.50
2019-04-16T18:33:20.680Z,60.70
2019-04-16T18:35:28.611Z,61.20
2019-04-16T18:37:48.544Z,61.50
2019-04-16T18:39:52.916Z,61.30
2019-04-16T18:41:58.148Z,61.40
2019-04-16T18:44:19.538Z,61.40
2019-04-16T18:46:36.612Z,61.60
2019-04-16T18:48:54.217Z,60.10
2019-04-16T18:50:59.923Z,59.80
2019-04-16T18:53:01.712Z,59.80
2019-04-16T18:55:06.630Z,59.60
2019-04-16T18:57:10.412Z,60.10
2019-04-16T18:59:14.093Z,59.60
2019-04-16T19:01:24.813Z,59.80
2019-04-16T19:03:27.685Z,59.90
2019-04-16T19:05:31.346Z,60.10
2019-04-16T19:07:35.090Z,61.20
2019-04-16T19:09:38.798Z,62.90
2019-04-16T19:11:42.479Z,63.20
2019-04-16T19:13:48.739Z,65.60
2019-04-16T19:15:52.595Z,65.40
2019-04-16T19:17:56.290Z,65.00
2019-04-16T19:20:03.367Z,64.70
2019-04-16T19:22:05.511Z,64.40
2019-04-16T19:24:09.309Z,64.10
2019-04-16T19:26:13.087Z,63.60
2019-04-16T19:28:20.067Z,63.40
2019-04-16T19:30:25.544Z,63.40
2019-04-16T19:32:29.228Z,63.60
2019-04-16T19:34:32.925Z,63.50
2019-04-16T19:36:36.594Z,61.90
2019-04-16T19:38:40.742Z,61.80
2019-04-16T19:40:44.466Z,62.70
2019-04-16T19:42:48.469Z,62.90
2019-04-16T19:44:52.220Z,62.20
2019-04-16T19:46:55.992Z,62.10
2019-04-16T19:49:00.976Z,62.20
2019-04-16T19:51:07.645Z,61.40
2019-04-16T19:53:13.798Z,61.80
2019-04-16T19:55:16.492Z,61.90
2019-04-16T19:57:20.211Z,62.30
2019-04-16T19:59:24.104Z,61.50
2019-04-16T20:01:28.070Z,61.90
2019-04-16T20:03:31.989Z,61.40
2019-04-16T20:05:35.807Z,61.70
2019-04-16T20:07:39.488Z,61.70
2019-04-16T20:09:43.251Z,61.90
2019-04-16T20:11:47.023Z,62.10
2019-04-16T20:13:50.703Z,62.30
2019-04-16T20:15:54.507Z,62.10
2019-04-16T20:17:58.239Z,61.60
2019-04-16T20:20:01.931Z,60.70
2019-04-16T20:22:05.747Z,62.00
2019-04-16T20:24:09.412Z,61.50
2019-04-16T20:26:13.133Z,61.70
2019-04-16T20:28:16.867Z,60.10
2019-04-16T20:30:23.057Z,59.80
2019-04-16T20:32:27.242Z,59.60
2019-04-16T20:34:31.015Z,59.40
2019-04-16T20:36:34.762Z,58.90
2019-04-16T20:38:38.443Z,58.70
2019-04-16T20:40:42.141Z,59.80
2019-04-16T20:42:45.843Z,60.30
2019-04-16T20:44:49.829Z,60.70
2019-04-16T20:46:53.786Z,60.80
2019-04-16T20:49:07.652Z,61.00
2019-04-16T20:51:03.164Z,62.00
2019-04-16T20:53:08.424Z,61.30
2019-04-16T20:55:15.766Z,62.50
2019-04-16T20:57:17.748Z,62.10
2019-04-16T20:59:21.405Z,62.50
2019-04-16T21:01:33.732Z,64.10
2019-04-16T21:03:31.511Z,64.10
2019-04-16T21:05:36.345Z,63.30
2019-04-16T21:07:40.342Z,62.70
2019-04-16T21:09:44.014Z,62.30
2019-04-16T21:11:47.976Z,61.70
2019-04-16T21:13:51.640Z,61.20
2019-04-16T21:15:57.197Z,61.20
2019-04-16T21:18:00.739Z,61.60
2019-04-16T21:20:06.107Z,61.60
2019-04-16T21:22:09.877Z,61.30
2019-04-16T21:24:13.804Z,61.70
2019-04-16T21:26:19.966Z,61.60
2019-04-16T21:28:24.906Z,61.90
2019-04-16T21:30:30.582Z,62.20
2019-04-16T21:32:51.964Z,62.10
2019-04-16T21:35:00.966Z,62.30
2019-04-16T21:37:09.972Z,62.70
2019-04-16T21:39:19.383Z,63.60
2019-04-16T21:41:25.650Z,63.50
2019-04-16T21:43:28.593Z,63.80
2019-04-16T21:45:35.637Z,64.00
2019-04-16T21:47:39.309Z,65.20
2019-04-16T21:49:45.822Z,64.50
2019-04-16T21:52:06.588Z,64.70
2019-04-16T21:54:10.343Z,64.60
2019-04-16T21:56:14.620Z,64.90
2019-04-16T21:58:18.523Z,64.80
2019-04-16T22:00:38.804Z,64.80
2019-04-16T22:02:42.469Z,64.90
2019-04-16T22:04:46.203Z,65.90
2019-04-16T22:06:52.451Z,66.00
2019-04-16T22:08:55.875Z,65.90
2019-04-16T22:10:59.682Z,65.50
2019-04-16T22:13:03.497Z,66.20
2019-04-16T22:15:07.520Z,66.80
2019-04-16T22:17:11.746Z,66.40
2019-04-16T22:19:15.549Z,66.50
2019-04-16T22:21:19.209Z,66.40
2019-04-16T22:23:22.908Z,66.10
2019-04-16T22:25:27.746Z,66.00
2019-04-16T22:27:31.506Z,66.20
2019-04-16T22:29:35.174Z,66.10
2019-04-16T22:31:38.860Z,66.00
2019-04-16T22:33:42.641Z,66.10
2019-04-16T22:35:46.322Z,66.70
2019-04-16T22:37:50.090Z,67.70
2019-04-16T22:39:55.363Z,68.20
2019-04-16T22:42:15.483Z,68.40
2019-04-16T22:44:37.210Z,68.80
2019-04-16T22:46:45.081Z,68.70
2019-04-16T22:48:55.283Z,69.80
2019-04-16T22:50:59.346Z,70.50
2019-04-16T22:53:03.031Z,70.50
2019-04-16T22:55:06.796Z,69.40
2019-04-16T22:57:12.139Z,69.30
2019-04-16T22:59:15.809Z,69.60
2019-04-16T23:01:21.103Z,70.20
2019-04-16T23:03:24.774Z,69.80
2019-04-16T23:05:30.869Z,69.70
2019-04-16T23:07:36.610Z,70.50
2019-04-16T23:09:39.361Z,70.90
2019-04-16T23:11:43.050Z,71.30
2019-04-16T23:13:46.732Z,72.10
2019-04-16T23:15:50.413Z,72.90
2019-04-16T23:17:54.089Z,74.50
2019-04-16T23:19:57.765Z,72.80
2019-04-16T23:22:01.452Z,72.30
2019-04-16T23:24:05.361Z,71.10
2019-04-16T23:26:09.198Z,70.30
2019-04-16T23:28:13.275Z,69.60
2019-04-16T23:30:18.490Z,69.20
2019-04-16T23:32:27.638Z,68.90
2019-04-16T23:34:27.932Z,68.80
2019-04-16T23:36:31.883Z,68.60
2019-04-16T23:38:35.567Z,67.60
2019-04-16T23:40:40.820Z,68.60
2019-04-16T23:43:02.331Z,67.90
2019-04-16T23:45:31.191Z,67.50
2019-04-16T23:47:41.991Z,67.40
2019-04-16T23:49:48.823Z,67.30
2019-04-16T23:52:03.592Z,67.80
2019-04-16T23:54:25.529Z,67.80
2019-04-16T23:56:30.820Z,67.60
2019-04-16T23:58:52.403Z,68.60
